createdAt,value
2023-01-08T00:01:08.253Z,6.1
2023-01-08T00:02:16.609Z,6.1
2023-01-08T00:03:25.170Z,6.1
2023-01-08T00:04:33.522Z,6.2
2023-01-08T00:05:41.882Z,6.2
2023-01-08T00:06:50.381Z,6.2
2023-01-08T00:07:59.139Z,6.3
2023-01-08T00:09:07.401Z,6.3
2023-01-08T00:10:15.767Z,6.3
2023-01-08T00:11:24.419Z,6.4
2023-01-08T00:12:32.872Z,6.4
2023-01-08T00:13:41.223Z,6.4
2023-01-08T00:14:49.826Z,5.9
2023-01-08T00:15:58.191Z,5.9
2023-01-08T00:17:06.600Z,5.9
2023-01-08T00:18:15.205Z,6.2
2023-01-08T00:19:23.558Z,6.2
2023-01-08T00:20:32.034Z,6.2
2023-01-08T00:21:40.660Z,6.2
2023-01-08T00:22:49.067Z,6.2
2023-01-08T00:23:57.555Z,6.2
2023-01-08T00:25:06.114Z,5.9
2023-01-08T00:26:14.536Z,5.9
2023-01-08T00:27:22.868Z,5.9
2023-01-08T00:28:31.565Z,6.1
2023-01-08T00:29:40.119Z,6.1
2023-01-08T00:30:48.637Z,6.1
2023-01-08T00:31:57.316Z,6.1
2023-01-08T00:33:05.760Z,6.1
2023-01-08T00:34:14.410Z,6.1
2023-01-08T00:35:31.492Z,5.5
2023-01-08T00:36:40.112Z,5.5
2023-01-08T00:37:48.524Z,5.5
2023-01-08T00:38:57.198Z,5.7
2023-01-08T00:40:05.629Z,5.7
2023-01-08T00:41:14.010Z,5.7
2023-01-08T00:42:22.608Z,5.4
2023-01-08T00:43:30.992Z,5.4
2023-01-08T00:44:39.452Z,5.4
2023-01-08T00:45:48.371Z,5.3
2023-01-08T00:46:56.892Z,5.3
2023-01-08T00:48:05.577Z,5.3
2023-01-08T00:49:14.470Z,5.5
2023-01-08T00:50:22.851Z,5.5
2023-01-08T00:51:31.302Z,5.5
2023-01-08T00:52:39.900Z,5.6
2023-01-08T00:53:48.400Z,5.6
2023-01-08T00:54:57.068Z,5.6
2023-01-08T01:08:39.815Z,5.3
2023-01-08T01:12:37.219Z,5.9
2023-01-08T01:13:47.909Z,5.9
2023-01-08T01:15:05.094Z,6.7
2023-01-08T01:20:11.949Z,6.5
2023-01-08T01:21:22.307Z,6.5
2023-01-08T01:22:31.550Z,6.5
2023-01-08T01:23:47.407Z,5.6
2023-01-08T01:25:28.225Z,5.6
2023-01-08T01:26:36.527Z,5.6
2023-01-08T01:27:45.169Z,5.6
2023-01-08T01:28:53.636Z,5.6
2023-01-08T01:30:02.029Z,5.6
2023-01-08T01:31:10.696Z,5.7
2023-01-08T01:32:19.020Z,5.7
2023-01-08T01:33:27.430Z,5.7
2023-01-08T01:34:36.002Z,5.8
2023-01-08T01:35:44.363Z,5.8
2023-01-08T01:36:52.768Z,5.8
2023-01-08T01:38:01.372Z,5.9
2023-01-08T01:39:09.842Z,5.9
2023-01-08T01:40:18.105Z,5.9
2023-01-08T01:41:26.696Z,6.5
2023-01-08T01:42:35.107Z,6.5
2023-01-08T01:43:43.484Z,6.5
2023-01-08T01:44:52.127Z,6.6
2023-01-08T01:46:00.679Z,6.6
2023-01-08T01:47:09.165Z,6.6
2023-01-08T01:48:17.796Z,6.2
2023-01-08T01:49:26.179Z,6.2
2023-01-08T01:50:34.644Z,6.2
2023-01-08T01:51:43.195Z,5.6
2023-01-08T01:52:51.755Z,5.6
2023-01-08T01:54:00.176Z,5.6
2023-01-08T01:55:08.877Z,5.1
2023-01-08T01:56:17.130Z,5.1
2023-01-08T01:57:25.544Z,5.1
2023-01-08T01:58:34.139Z,4.6
2023-01-08T01:59:42.530Z,4.6
2023-01-08T02:00:51.017Z,4.6
2023-01-08T02:01:59.732Z,4.3
2023-01-08T02:03:08.043Z,4.3
2023-01-08T02:04:16.477Z,4.3
2023-01-08T02:05:25.007Z,4
2023-01-08T02:06:33.380Z,4
2023-01-08T02:07:41.765Z,4
2023-01-08T02:08:50.350Z,4.6
2023-01-08T02:09:58.750Z,4.6
2023-01-08T02:11:07.213Z,4.6
2023-01-08T02:12:15.727Z,4.2
2023-01-08T02:13:24.109Z,4.2
2023-01-08T02:14:32.551Z,4.2
2023-01-08T02:15:41.106Z,4.6
2023-01-08T02:16:49.613Z,4.6
2023-01-08T02:17:57.945Z,4.6
2023-01-08T02:19:06.685Z,4.6
2023-01-08T02:20:15.030Z,4.6
2023-01-08T02:21:23.428Z,4.6
2023-01-08T02:22:32.039Z,4.4
2023-01-08T02:23:40.398Z,4.4
2023-01-08T02:24:48.778Z,4.4
2023-01-08T02:25:57.437Z,4.1
2023-01-08T02:27:05.941Z,4.1
2023-01-08T02:28:14.200Z,4.1
2023-01-08T02:29:22.757Z,4.5
2023-01-08T02:30:31.254Z,4.5
2023-01-08T02:31:39.645Z,4.5
2023-01-08T02:32:48.197Z,4.1
2023-01-08T02:33:56.597Z,4.1
2023-01-08T02:35:05.000Z,4.1
2023-01-08T02:36:13.561Z,3.7
2023-01-08T02:37:21.961Z,3.7
2023-01-08T02:38:30.320Z,3.7
2023-01-08T02:39:38.887Z,3.9
2023-01-08T02:40:47.261Z,3.9
2023-01-08T02:41:55.650Z,3.9
2023-01-08T02:43:04.361Z,4
2023-01-08T02:44:12.596Z,4
2023-01-08T02:45:20.984Z,4
2023-01-08T02:46:29.703Z,3.8
2023-01-08T02:47:38.015Z,3.8
2023-01-08T02:48:46.382Z,3.8
2023-01-08T02:49:54.920Z,4.3
2023-01-08T02:51:03.396Z,4.3
2023-01-08T02:52:11.812Z,4.3
2023-01-08T02:53:20.412Z,4.2
2023-01-08T02:54:28.793Z,4.2
2023-01-08T02:55:37.180Z,4.2
2023-01-08T02:56:45.749Z,4.1
2023-01-08T02:57:54.101Z,4.1
2023-01-08T02:59:02.649Z,4.1
2023-01-08T03:00:11.013Z,4.4
2023-01-08T03:01:19.483Z,4.4
2023-01-08T03:02:27.899Z,4.4
2023-01-08T03:03:36.407Z,4
2023-01-08T03:04:44.776Z,4
2023-01-08T03:05:53.489Z,4
2023-01-08T03:07:02.280Z,4
2023-01-08T03:08:10.630Z,4
2023-01-08T03:09:19.182Z,4
2023-01-08T03:10:27.711Z,3.9
2023-01-08T03:11:36.086Z,3.9
2023-01-08T03:12:44.558Z,3.9
2023-01-08T03:13:53.238Z,3.7
2023-01-08T03:15:01.716Z,3.7
2023-01-08T03:16:10.031Z,3.7
2023-01-08T03:17:18.645Z,3.9
2023-01-08T03:18:26.987Z,3.9
2023-01-08T03:19:35.422Z,3.9
2023-01-08T03:20:44.014Z,4.3
2023-01-08T03:21:52.401Z,4.3
2023-01-08T03:23:00.789Z,4.3
2023-01-08T03:24:09.361Z,4.3
2023-01-08T03:25:17.746Z,4.3
2023-01-08T03:26:26.109Z,4.3
2023-01-08T03:27:34.739Z,3.6
2023-01-08T03:28:43.132Z,3.6
2023-01-08T03:29:51.533Z,3.6
2023-01-08T03:31:00.187Z,4.2
2023-01-08T03:32:08.440Z,4.2
2023-01-08T03:33:16.945Z,4.2
2023-01-08T03:34:25.588Z,4.2
2023-01-08T03:35:33.996Z,4.2
2023-01-08T03:36:42.517Z,4.2
2023-01-08T03:37:51.155Z,4.5
2023-01-08T03:38:59.550Z,4.5
2023-01-08T03:40:07.890Z,4.5
2023-01-08T03:41:16.532Z,4.6
2023-01-08T03:42:24.880Z,4.6
2023-01-08T03:43:33.243Z,4.6
2023-01-08T03:44:41.956Z,4.5
2023-01-08T03:45:50.621Z,4.5
2023-01-08T03:46:59.034Z,4.5
2023-01-08T03:48:07.568Z,4.4
2023-01-08T03:49:16.161Z,4.4
2023-01-08T03:50:24.608Z,4.4
2023-01-08T03:51:33.219Z,4.5
2023-01-08T03:52:41.595Z,4.5
2023-01-08T03:53:50.013Z,4.5
2023-01-08T03:54:58.715Z,4.7
2023-01-08T03:56:07.115Z,4.7
2023-01-08T03:57:15.608Z,4.7
2023-01-08T03:58:24.239Z,4.1
2023-01-08T03:59:32.816Z,4.1
2023-01-08T04:00:41.356Z,4.1
2023-01-08T04:01:50.798Z,4.5
2023-01-08T04:02:59.275Z,4.5
2023-01-08T04:04:07.527Z,4.5
2023-01-08T04:05:16.255Z,4.6
2023-01-08T04:06:24.622Z,4.6
2023-01-08T04:07:33.117Z,4.6
2023-01-08T04:08:41.776Z,5
2023-01-08T04:09:50.146Z,5
2023-01-08T04:10:58.564Z,5
2023-01-08T04:12:07.164Z,5.2
2023-01-08T04:13:15.644Z,5.2
2023-01-08T04:14:24.090Z,5.2
2023-01-08T04:15:32.782Z,5.1
2023-01-08T04:16:41.180Z,5.1
2023-01-08T04:17:49.656Z,5.1
2023-01-08T04:18:58.387Z,5.2
2023-01-08T04:20:06.652Z,5.2
2023-01-08T04:21:14.986Z,5.2
2023-01-08T04:22:23.676Z,5.3
2023-01-08T04:23:32.057Z,5.3
2023-01-08T04:24:40.433Z,5.3
2023-01-08T04:25:49.097Z,5.2
2023-01-08T04:26:57.507Z,5.2
2023-01-08T04:28:05.912Z,5.2
2023-01-08T04:29:14.515Z,5.5
2023-01-08T04:30:22.903Z,5.5
2023-01-08T04:31:31.324Z,5.5
2023-01-08T04:32:39.863Z,6.4
2023-01-08T04:33:48.360Z,6.4
2023-01-08T04:34:56.783Z,6.4
2023-01-08T04:36:05.430Z,6.2
2023-01-08T04:37:13.945Z,6.2
2023-01-08T04:38:22.287Z,6.2
2023-01-08T04:39:30.891Z,6.6
2023-01-08T04:40:39.342Z,6.6
2023-01-08T04:41:47.883Z,6.6
2023-01-08T04:42:56.474Z,6.3
2023-01-08T04:44:04.849Z,6.3
2023-01-08T04:45:13.277Z,6.3
2023-01-08T04:46:21.951Z,6.2
2023-01-08T04:47:30.403Z,6.2
2023-01-08T04:48:38.820Z,6.2
2023-01-08T04:49:47.384Z,6.3
2023-01-08T04:50:55.828Z,6.3
2023-01-08T04:52:04.243Z,6.3
2023-01-08T04:53:12.904Z,6.6
2023-01-08T04:54:21.340Z,6.6
2023-01-08T04:55:29.719Z,6.6
2023-01-08T04:56:38.542Z,6.1
2023-01-08T04:57:46.977Z,6.1
2023-01-08T04:58:55.346Z,6.1
2023-01-08T05:00:03.954Z,6.8
2023-01-08T05:01:12.442Z,6.8
2023-01-08T05:02:20.876Z,6.8
2023-01-08T05:03:29.417Z,6.6
2023-01-08T05:04:37.699Z,6.6
2023-01-08T05:05:47.648Z,6.6
2023-01-08T05:06:54.834Z,6.5
2023-01-08T05:08:03.114Z,6.5
2023-01-08T05:09:11.564Z,6.5
2023-01-08T05:10:20.172Z,7
2023-01-08T05:11:28.530Z,7
2023-01-08T05:12:36.896Z,7
2023-01-08T05:13:45.481Z,7.7
2023-01-08T05:14:53.862Z,7.7
2023-01-08T05:16:02.375Z,7.7
2023-01-08T05:17:10.854Z,7.7
2023-01-08T05:18:19.269Z,7.7
2023-01-08T05:19:27.648Z,7.7
2023-01-08T05:20:36.271Z,7.3
2023-01-08T05:21:44.677Z,7.3
2023-01-08T05:22:53.099Z,7.3
2023-01-08T05:24:01.653Z,7.8
2023-01-08T05:25:10.033Z,7.8
2023-01-08T05:26:18.440Z,7.8
2023-01-08T05:27:27.011Z,7.9
2023-01-08T05:28:35.394Z,7.9
2023-01-08T05:29:43.765Z,7.9
2023-01-08T05:30:52.415Z,7.8
2023-01-08T05:32:00.795Z,7.8
2023-01-08T05:33:09.181Z,7.8
2023-01-08T05:34:17.825Z,7.5
2023-01-08T05:35:26.240Z,7.5
2023-01-08T05:36:34.839Z,7.5
2023-01-08T05:37:43.478Z,7.7
2023-01-08T05:38:51.892Z,7.7
2023-01-08T05:40:00.322Z,7.7
2023-01-08T05:41:08.925Z,7.6
2023-01-08T05:42:17.358Z,7.6
2023-01-08T05:43:25.766Z,7.6
2023-01-08T05:44:34.423Z,7.6
2023-01-08T05:45:42.978Z,7.6
2023-01-08T05:46:51.408Z,7.6
2023-01-08T05:48:00.017Z,7.4
2023-01-08T05:49:08.417Z,7.4
2023-01-08T05:50:16.916Z,7.4
2023-01-08T05:51:25.513Z,7.9
2023-01-08T05:52:33.902Z,7.9
2023-01-08T05:53:42.287Z,7.9
2023-01-08T05:54:51.051Z,7.2
2023-01-08T05:55:59.372Z,7.2
2023-01-08T05:57:07.723Z,7.2
2023-01-08T05:58:16.442Z,7.2
2023-01-08T05:59:24.987Z,7.2
2023-01-08T06:00:33.426Z,7.2
2023-01-08T06:01:42.130Z,7.6
2023-01-08T06:02:50.563Z,7.6
2023-01-08T06:03:59.022Z,7.6
2023-01-08T06:05:07.537Z,6.9
2023-01-08T06:06:15.919Z,6.9
2023-01-08T06:07:24.477Z,6.9
2023-01-08T06:08:33.081Z,7.2
2023-01-08T06:09:41.421Z,7.2
2023-01-08T06:10:49.910Z,7.2
2023-01-08T06:11:58.491Z,7.3
2023-01-08T06:13:06.978Z,7.3
2023-01-08T06:14:15.520Z,7.3
2023-01-08T06:15:24.279Z,6.7
2023-01-08T06:16:32.651Z,6.7
2023-01-08T06:17:41.052Z,6.7
2023-01-08T06:18:49.709Z,6.8
2023-01-08T06:19:58.150Z,6.8
2023-01-08T06:21:07.098Z,6.8
2023-01-08T06:22:15.631Z,7.3
2023-01-08T06:23:24.132Z,7.3
2023-01-08T06:24:32.511Z,7.3
2023-01-08T06:25:42.161Z,7.1
2023-01-08T06:26:50.756Z,7.1
2023-01-08T06:27:59.065Z,7.1
2023-01-08T06:29:07.730Z,6.9
2023-01-08T06:30:16.095Z,6.9
2023-01-08T06:31:24.614Z,6.9
2023-01-08T06:32:33.152Z,6.6
2023-01-08T06:33:41.541Z,6.6
2023-01-08T06:34:49.959Z,6.6
2023-01-08T06:35:58.584Z,7.2
2023-01-08T06:37:06.984Z,7.2
2023-01-08T06:38:15.398Z,7.2
2023-01-08T06:39:24.002Z,6.9
2023-01-08T06:40:32.393Z,6.9
2023-01-08T06:41:40.904Z,6.9
2023-01-08T06:42:49.711Z,6.9
2023-01-08T06:43:57.920Z,6.9
2023-01-08T06:45:06.315Z,6.9
2023-01-08T06:46:15.004Z,42.599998
2023-01-08T06:47:23.323Z,42.599998
2023-01-08T06:48:31.762Z,42.599998
2023-01-08T06:49:40.368Z,17.200001
2023-01-08T06:50:48.712Z,17.200001
2023-01-08T06:51:57.190Z,17.200001
2023-01-08T06:53:05.759Z,20.4
2023-01-08T06:54:14.217Z,20.4
2023-01-08T06:55:22.731Z,20.4
2023-01-08T06:56:32.140Z,7.4
2023-01-08T06:57:39.790Z,7.4
2023-01-08T06:58:48.163Z,7.4
2023-01-08T06:59:56.788Z,6.7
2023-01-08T07:01:05.251Z,6.7
2023-01-08T07:02:13.726Z,6.7
2023-01-08T07:03:22.296Z,7.2
2023-01-08T07:04:30.603Z,7.2
2023-01-08T07:05:39.260Z,7.2
2023-01-08T07:06:47.891Z,7.2
2023-01-08T07:07:56.304Z,7.2
2023-01-08T07:09:04.709Z,7.2
2023-01-08T07:10:13.292Z,6
2023-01-08T07:11:21.761Z,6
2023-01-08T07:12:30.199Z,6
2023-01-08T07:13:38.802Z,6.7
2023-01-08T07:14:48.189Z,6.7
2023-01-08T07:15:57.517Z,6.7
2023-01-08T07:17:06.078Z,6.4
2023-01-08T07:18:14.440Z,6.4
2023-01-08T07:19:22.834Z,6.4
2023-01-08T07:20:31.450Z,6.4
2023-01-08T07:21:39.857Z,6.4
2023-01-08T07:22:48.220Z,6.4
2023-01-08T07:23:56.800Z,6.7
2023-01-08T07:25:05.219Z,6.7
2023-01-08T07:26:13.553Z,6.7
2023-01-08T07:27:22.111Z,8.3
2023-01-08T07:28:30.468Z,8.3
2023-01-08T07:29:38.827Z,8.3
2023-01-08T07:30:47.516Z,6.4
2023-01-08T07:31:55.766Z,6.4
2023-01-08T07:33:04.114Z,6.4
2023-01-08T07:34:14.493Z,6.5
2023-01-08T07:35:21.053Z,6.5
2023-01-08T07:36:29.407Z,6.5
2023-01-08T07:37:38.010Z,6.2
2023-01-08T07:38:46.388Z,6.2
2023-01-08T07:39:54.735Z,6.2
2023-01-08T07:41:03.347Z,6.4
2023-01-08T07:42:11.681Z,6.4
2023-01-08T07:43:20.030Z,6.4
2023-01-08T07:44:28.637Z,7.5
2023-01-08T07:45:36.997Z,7.5
2023-01-08T07:46:45.519Z,7.5
2023-01-08T07:47:53.920Z,7.9
2023-01-08T07:49:02.270Z,7.9
2023-01-08T07:50:10.660Z,7.9
2023-01-08T07:51:19.230Z,7.7
2023-01-08T07:52:27.599Z,7.7
2023-01-08T07:53:35.993Z,7.7
2023-01-08T07:54:44.543Z,7.1
2023-01-08T07:55:52.892Z,7.1
2023-01-08T07:57:01.247Z,7.1
2023-01-08T07:58:09.807Z,8.7
2023-01-08T07:59:18.167Z,8.7
2023-01-08T08:00:26.522Z,8.7
2023-01-08T08:01:35.238Z,9.3
2023-01-08T08:02:43.716Z,9.3
2023-01-08T08:03:51.983Z,9.3
2023-01-08T08:05:00.594Z,14.8
2023-01-08T08:06:09.092Z,14.8
2023-01-08T08:07:17.431Z,14.8
2023-01-08T08:08:26.034Z,7.8
2023-01-08T08:09:34.432Z,7.8
2023-01-08T08:10:42.799Z,7.8
2023-01-08T08:11:51.363Z,6.8
2023-01-08T08:12:59.781Z,6.8
2023-01-08T08:14:08.227Z,6.8
2023-01-08T08:15:16.863Z,6.4
2023-01-08T08:16:25.370Z,6.4
2023-01-08T08:17:33.624Z,6.4
2023-01-08T08:18:42.341Z,7
2023-01-08T08:19:50.597Z,7
2023-01-08T08:20:58.973Z,7
2023-01-08T08:22:07.552Z,7.5
2023-01-08T08:23:15.969Z,7.5
2023-01-08T08:24:25.514Z,7.5
2023-01-08T08:25:33.984Z,8.2
2023-01-08T08:26:42.385Z,8.2
2023-01-08T08:27:50.778Z,8.2
2023-01-08T08:28:59.357Z,7.3
2023-01-08T08:30:07.702Z,7.3
2023-01-08T08:31:16.159Z,7.3
2023-01-08T08:32:24.717Z,10.9
2023-01-08T08:33:33.063Z,10.9
2023-01-08T08:34:41.532Z,10.9
2023-01-08T08:35:50.139Z,18.799999
2023-01-08T08:36:58.480Z,18.799999
2023-01-08T08:38:24.803Z,18.799999
2023-01-08T08:39:33.378Z,8.1
2023-01-08T08:40:41.744Z,8.1
2023-01-08T08:41:50.158Z,8.1
2023-01-08T08:42:58.713Z,8.5
2023-01-08T08:44:07.073Z,8.5
2023-01-08T08:45:15.462Z,8.5
2023-01-08T08:46:24.029Z,9.9
2023-01-08T08:47:32.373Z,9.9
2023-01-08T08:48:40.734Z,9.9
2023-01-08T08:49:49.334Z,6.6
2023-01-08T08:50:57.694Z,6.6
2023-01-08T08:52:06.015Z,6.6
2023-01-08T08:53:14.580Z,7.6
2023-01-08T08:54:22.939Z,7.6
2023-01-08T08:55:31.304Z,7.6
2023-01-08T08:56:39.866Z,7.8
2023-01-08T08:57:48.220Z,7.8
2023-01-08T08:58:56.579Z,7.8
2023-01-08T09:00:05.185Z,8.2
2023-01-08T09:01:13.599Z,8.2
2023-01-08T09:02:22.150Z,8.2
2023-01-08T09:03:30.574Z,7.6
2023-01-08T09:04:38.892Z,7.6
2023-01-08T09:05:47.385Z,7.6
2023-01-08T09:06:55.844Z,7.4
2023-01-08T09:08:04.193Z,7.4
2023-01-08T09:09:12.556Z,7.4
2023-01-08T09:10:21.120Z,8.1
2023-01-08T09:11:29.475Z,8.1
2023-01-08T09:12:37.832Z,8.1
2023-01-08T09:13:46.416Z,8.2
2023-01-08T09:14:54.836Z,8.2
2023-01-08T09:16:03.305Z,8.2
2023-01-08T09:17:11.743Z,10.6
2023-01-08T09:18:20.117Z,10.6
2023-01-08T09:19:28.468Z,10.6
2023-01-08T09:20:37.046Z,8.7
2023-01-08T09:21:45.556Z,8.7
2023-01-08T09:22:53.787Z,8.7
2023-01-08T09:24:02.362Z,15.5
2023-01-08T09:25:10.752Z,15.5
2023-01-08T09:26:19.100Z,15.5
2023-01-08T09:27:27.661Z,9
2023-01-08T09:28:36.050Z,9
2023-01-08T09:29:44.423Z,9
2023-01-08T09:30:52.996Z,9.8
2023-01-08T09:32:01.342Z,9.8
2023-01-08T09:33:09.705Z,9.8
2023-01-08T09:34:18.267Z,8.6
2023-01-08T09:35:26.632Z,8.6
2023-01-08T09:36:35.017Z,8.6
2023-01-08T09:37:43.682Z,7.3
2023-01-08T09:38:51.971Z,7.3
2023-01-08T09:40:02.347Z,7.3
2023-01-08T09:41:08.891Z,8
2023-01-08T09:42:17.240Z,8
2023-01-08T09:43:25.632Z,8
2023-01-08T09:44:34.201Z,8.1
2023-01-08T09:45:42.557Z,8.1
2023-01-08T09:46:50.967Z,8.1
2023-01-08T09:47:59.504Z,8.6
2023-01-08T09:49:07.895Z,8.6
2023-01-08T09:50:16.224Z,8.6
2023-01-08T09:51:24.783Z,7.9
2023-01-08T09:52:33.145Z,7.9
2023-01-08T09:53:41.616Z,7.9
2023-01-08T09:54:50.041Z,8.1
2023-01-08T09:56:08.934Z,8.1
2023-01-08T09:57:06.787Z,8.1
2023-01-08T09:58:15.339Z,8.7
2023-01-08T09:59:23.709Z,8.7
2023-01-08T10:00:32.109Z,8.7
2023-01-08T10:01:40.743Z,8
2023-01-08T10:02:49.057Z,8
2023-01-08T10:03:57.371Z,8
2023-01-08T10:05:06.021Z,10.5
2023-01-08T10:06:14.396Z,10.5
2023-01-08T10:07:22.724Z,10.5
2023-01-08T10:08:31.297Z,35.599998
2023-01-08T10:09:39.813Z,35.599998
2023-01-08T10:10:48.098Z,35.599998
2023-01-08T10:11:56.666Z,11.6
2023-01-08T10:13:04.998Z,11.6
2023-01-08T10:14:13.362Z,11.6
2023-01-08T10:15:21.970Z,14.3
2023-01-08T10:16:30.491Z,14.3
2023-01-08T10:17:38.713Z,14.3
2023-01-08T10:18:47.375Z,12.5
2023-01-08T10:19:56.217Z,12.5
2023-01-08T10:21:04.598Z,12.5
2023-01-08T10:22:13.156Z,20.299999
2023-01-08T10:23:21.521Z,20.299999
2023-01-08T10:24:30.111Z,20.299999
2023-01-08T10:25:38.781Z,19
2023-01-08T10:26:47.106Z,19
2023-01-08T10:27:55.601Z,19
2023-01-08T10:29:04.143Z,7.8
2023-01-08T10:30:12.534Z,7.8
2023-01-08T10:31:20.963Z,7.8
2023-01-08T10:32:29.503Z,9
2023-01-08T10:33:37.867Z,9
2023-01-08T10:34:46.212Z,9
2023-01-08T10:35:54.774Z,10
2023-01-08T10:37:03.159Z,10
2023-01-08T10:38:11.528Z,10
2023-01-08T10:39:20.087Z,9.7
2023-01-08T10:40:28.453Z,9.7
2023-01-08T10:41:36.847Z,9.7
2023-01-08T10:42:45.400Z,8
2023-01-08T10:43:53.754Z,8
2023-01-08T10:45:02.114Z,8
2023-01-08T10:46:10.708Z,7.9
2023-01-08T10:47:19.059Z,7.9
2023-01-08T10:48:27.433Z,7.9
2023-01-08T10:49:35.999Z,9.4
2023-01-08T10:50:44.380Z,9.4
2023-01-08T10:51:52.765Z,9.4
2023-01-08T10:53:01.338Z,7.5
2023-01-08T10:54:09.718Z,7.5
2023-01-08T10:55:18.456Z,7.5
2023-01-08T10:56:27.141Z,8.3
2023-01-08T10:57:35.541Z,8.3
2023-01-08T10:58:43.835Z,8.3
2023-01-08T10:59:52.414Z,8.7
2023-01-08T11:01:00.866Z,8.7
2023-01-08T11:02:09.228Z,8.7
2023-01-08T11:03:17.702Z,9.7
2023-01-08T11:04:26.058Z,9.7
2023-01-08T11:05:34.418Z,9.7
2023-01-08T11:06:42.975Z,11.8
2023-01-08T11:07:51.343Z,11.8
2023-01-08T11:08:59.718Z,11.8
2023-01-08T11:10:08.267Z,9.1
2023-01-08T11:11:16.632Z,9.1
2023-01-08T11:12:25.010Z,9.1
2023-01-08T11:13:33.612Z,8.2
2023-01-08T11:14:41.942Z,8.2
2023-01-08T11:15:50.311Z,8.2
2023-01-08T11:16:58.891Z,9
2023-01-08T11:18:07.256Z,9
2023-01-08T11:19:15.594Z,9
2023-01-08T11:20:24.230Z,7
2023-01-08T11:21:32.593Z,7
2023-01-08T11:22:40.955Z,7
2023-01-08T11:23:49.518Z,8
2023-01-08T11:24:57.859Z,8
2023-01-08T11:26:06.213Z,8
2023-01-08T11:27:14.794Z,10.8
2023-01-08T11:28:23.125Z,10.8
2023-01-08T11:29:31.521Z,10.8
2023-01-08T11:30:40.035Z,8.6
2023-01-08T11:31:48.434Z,8.6
2023-01-08T11:32:56.732Z,8.6
2023-01-08T11:34:05.283Z,14.8
2023-01-08T11:35:13.657Z,14.8
2023-01-08T11:36:21.991Z,14.8
2023-01-08T11:37:30.559Z,7.2
2023-01-08T11:38:38.915Z,7.2
2023-01-08T11:39:47.281Z,7.2
2023-01-08T11:40:55.839Z,6.6
2023-01-08T11:42:04.250Z,6.6
2023-01-08T11:43:12.615Z,6.6
2023-01-08T11:44:21.217Z,13.5
2023-01-08T11:45:29.672Z,13.5
2023-01-08T11:46:38.049Z,13.5
2023-01-08T11:47:46.625Z,8.1
2023-01-08T11:48:54.994Z,8.1
2023-01-08T11:50:03.418Z,8.1
2023-01-08T11:51:12.017Z,7
2023-01-08T11:52:20.401Z,7
2023-01-08T11:53:28.723Z,7
2023-01-08T11:54:37.305Z,9.7
2023-01-08T11:55:45.715Z,9.7
2023-01-08T11:56:54.081Z,9.7
2023-01-08T11:58:02.686Z,7.2
2023-01-08T11:59:11.034Z,7.2
2023-01-08T12:00:19.432Z,7.2
2023-01-08T12:01:28.024Z,9.9
2023-01-08T12:02:36.333Z,9.9
2023-01-08T12:03:44.682Z,9.9
2023-01-08T12:04:53.266Z,6.5
2023-01-08T12:06:01.646Z,6.5
2023-01-08T12:07:10.051Z,6.5
2023-01-08T12:08:18.576Z,9.2
2023-01-08T12:09:26.994Z,9.2
2023-01-08T12:10:35.338Z,9.2
2023-01-08T12:11:43.927Z,8.7
2023-01-08T12:12:52.269Z,8.7
2023-01-08T12:14:00.610Z,8.7
2023-01-08T12:15:09.222Z,5.6
2023-01-08T12:16:17.644Z,5.6
2023-01-08T12:17:25.983Z,5.6
2023-01-08T12:18:34.603Z,10.9
2023-01-08T12:19:42.945Z,10.9
2023-01-08T12:20:51.287Z,10.9
2023-01-08T12:21:59.905Z,15.9
2023-01-08T12:23:08.252Z,15.9
2023-01-08T12:24:16.659Z,15.9
2023-01-08T12:25:25.206Z,5.4
2023-01-08T12:26:33.560Z,5.4
2023-01-08T12:27:56.208Z,5.4
2023-01-08T12:28:50.588Z,19.700001
2023-01-08T12:29:58.900Z,19.700001
2023-01-08T12:31:07.283Z,19.700001
2023-01-08T12:32:15.960Z,4.7
2023-01-08T12:33:24.290Z,4.7
2023-01-08T12:34:32.669Z,4.7
2023-01-08T12:35:41.225Z,4.4
2023-01-08T12:36:49.635Z,4.4
2023-01-08T12:37:57.999Z,4.4
2023-01-08T12:39:06.548Z,3.9
2023-01-08T12:40:14.955Z,3.9
2023-01-08T12:41:23.397Z,3.9
2023-01-08T12:42:32.005Z,3.3
2023-01-08T12:43:40.422Z,3.3
2023-01-08T12:44:48.780Z,3.3
2023-01-08T12:45:57.393Z,4
2023-01-08T12:47:05.763Z,4
2023-01-08T12:48:14.151Z,4
2023-01-08T12:49:24.282Z,3.5
2023-01-08T12:50:32.612Z,3.5
2023-01-08T12:51:41.009Z,3.5
2023-01-08T12:52:49.570Z,6.1
2023-01-08T12:53:57.918Z,6.1
2023-01-08T12:55:06.265Z,6.1
2023-01-08T12:56:14.850Z,3.1
2023-01-08T12:57:23.227Z,3.1
2023-01-08T12:58:31.598Z,3.1
2023-01-08T12:59:40.273Z,2.8
2023-01-08T13:00:48.762Z,2.8
2023-01-08T13:01:57.216Z,2.8
2023-01-08T13:03:05.704Z,3.6
2023-01-08T13:04:14.011Z,3.6
2023-01-08T13:05:22.387Z,3.6
2023-01-08T13:06:30.935Z,4.6
2023-01-08T13:07:39.270Z,4.6
2023-01-08T13:08:47.728Z,4.6
2023-01-08T13:09:56.311Z,4
2023-01-08T13:11:04.709Z,4
2023-01-08T13:12:13.056Z,4
2023-01-08T13:13:21.744Z,4.8
2023-01-08T13:14:30.172Z,4.8
2023-01-08T13:15:38.504Z,4.8
2023-01-08T13:16:47.161Z,3.4
2023-01-08T13:17:55.473Z,3.4
2023-01-08T13:19:03.920Z,3.4
2023-01-08T13:20:12.435Z,3.5
2023-01-08T13:21:20.806Z,3.5
2023-01-08T13:22:29.147Z,3.5
2023-01-08T13:23:37.725Z,3
2023-01-08T13:24:46.067Z,3
2023-01-08T13:25:54.452Z,3
2023-01-08T13:27:03.093Z,3.6
2023-01-08T13:28:11.488Z,3.6
2023-01-08T13:29:19.920Z,3.6
2023-01-08T13:30:30.682Z,3.7
2023-01-08T13:31:36.813Z,3.7
2023-01-08T13:32:45.220Z,3.7
2023-01-08T13:33:53.737Z,3.5
2023-01-08T13:35:02.124Z,3.5
2023-01-08T13:36:10.469Z,3.5
2023-01-08T13:37:27.181Z,3.7
2023-01-08T13:38:27.397Z,3.7
2023-01-08T13:39:35.766Z,3.7
2023-01-08T13:40:44.361Z,3.4
2023-01-08T13:41:52.738Z,3.4
2023-01-08T13:43:01.105Z,3.4
2023-01-08T13:44:09.654Z,2.8
2023-01-08T13:45:18.026Z,2.8
2023-01-08T13:46:26.372Z,2.8
2023-01-08T13:47:34.960Z,2.1
2023-01-08T13:48:43.358Z,2.1
2023-01-08T13:49:51.713Z,2.1
2023-01-08T13:51:00.297Z,2.2
2023-01-08T13:52:08.730Z,2.2
2023-01-08T13:53:17.055Z,2.2
2023-01-08T13:54:25.611Z,1.8
2023-01-08T13:55:33.988Z,1.8
2023-01-08T13:56:42.323Z,1.8
2023-01-08T13:57:50.965Z,1.9
2023-01-08T13:58:59.367Z,1.9
2023-01-08T14:00:07.743Z,1.9
2023-01-08T14:01:16.456Z,1.9
2023-01-08T14:02:24.879Z,1.9
2023-01-08T14:03:35.400Z,1.9
2023-01-08T14:04:41.717Z,2.8
2023-01-08T14:05:50.093Z,2.8
2023-01-08T14:06:58.518Z,2.8
2023-01-08T14:08:07.070Z,3.7
2023-01-08T14:09:15.475Z,3.7
2023-01-08T14:10:23.858Z,3.7
2023-01-08T14:11:32.399Z,1.8
2023-01-08T14:12:40.808Z,1.8
2023-01-08T14:13:49.187Z,1.8
2023-01-08T14:14:58.977Z,2.3
2023-01-08T14:16:06.158Z,2.3
2023-01-08T14:17:14.495Z,2.3
2023-01-08T14:18:23.081Z,2.4
2023-01-08T14:19:31.479Z,2.4
2023-01-08T14:20:39.859Z,2.4
2023-01-08T14:21:48.395Z,4.6
2023-01-08T14:22:56.776Z,4.6
2023-01-08T14:24:05.131Z,4.6
2023-01-08T14:25:13.720Z,7.2
2023-01-08T14:26:22.046Z,7.2
2023-01-08T14:27:30.400Z,7.2
2023-01-08T14:28:38.984Z,4.1
2023-01-08T14:29:47.321Z,4.1
2023-01-08T14:30:55.694Z,4.1
2023-01-08T15:05:12.869Z,0
2023-01-08T15:06:21.194Z,0
2023-01-08T15:07:29.546Z,0
2023-01-08T15:08:38.098Z,2.1
2023-01-08T15:09:46.437Z,2.1
2023-01-08T15:10:54.792Z,2.1
2023-01-08T15:12:03.340Z,2.3
2023-01-08T15:13:11.693Z,2.3
2023-01-08T15:14:20.055Z,2.3
2023-01-08T15:15:28.590Z,2.5
2023-01-08T15:16:36.946Z,2.5
2023-01-08T15:17:45.295Z,2.5
2023-01-08T15:18:53.853Z,5.1
2023-01-08T15:20:02.196Z,5.1
2023-01-08T15:21:10.605Z,5.1
2023-01-08T15:22:19.126Z,2.7
2023-01-08T15:23:27.475Z,2.7
2023-01-08T15:24:35.876Z,2.7
2023-01-08T15:25:44.400Z,1.7
2023-01-08T15:26:52.738Z,1.7
2023-01-08T15:28:01.108Z,1.7
2023-01-08T15:29:09.679Z,1.9
2023-01-08T15:30:17.999Z,1.9
2023-01-08T15:31:26.428Z,1.9
2023-01-08T15:32:34.936Z,6.7
2023-01-08T15:33:43.267Z,6.7
2023-01-08T15:34:51.621Z,6.7
2023-01-08T15:36:00.177Z,2.9
2023-01-08T15:37:08.548Z,2.9
2023-01-08T15:38:16.873Z,2.9
2023-01-08T15:39:25.426Z,1.9
2023-01-08T15:40:33.759Z,1.9
2023-01-08T15:41:42.106Z,1.9
2023-01-08T15:42:50.658Z,1.9
2023-01-08T15:43:58.996Z,1.9
2023-01-08T15:45:07.346Z,1.9
2023-01-08T15:46:15.899Z,2.1
2023-01-08T15:47:24.247Z,2.1
2023-01-08T15:48:32.585Z,2.1
2023-01-08T15:49:41.132Z,1.8
2023-01-08T15:50:49.467Z,1.8
2023-01-08T15:51:57.825Z,1.8
2023-01-08T15:53:06.423Z,1.9
2023-01-08T15:54:14.748Z,1.9
2023-01-08T15:55:23.094Z,1.9
2023-01-08T15:56:31.659Z,4.6
2023-01-08T15:57:40.710Z,4.6
2023-01-08T15:58:48.360Z,4.6
2023-01-08T15:59:56.917Z,5.8
2023-01-08T16:01:05.323Z,5.8
2023-01-08T16:02:13.692Z,5.8
2023-01-08T16:03:22.179Z,2.3
2023-01-08T16:04:30.525Z,2.3
2023-01-08T16:05:38.855Z,2.3
2023-01-08T16:06:47.392Z,3.9
2023-01-08T16:07:55.741Z,3.9
2023-01-08T16:09:04.121Z,3.9
2023-01-08T16:10:12.695Z,3
2023-01-08T16:11:21.010Z,3
2023-01-08T16:12:29.339Z,3
2023-01-08T16:13:37.927Z,2.7
2023-01-08T16:14:46.257Z,2.7
2023-01-08T16:15:54.589Z,2.7
2023-01-08T16:17:03.149Z,4.8
2023-01-08T16:18:11.505Z,4.8
2023-01-08T16:19:19.838Z,4.8
2023-01-08T16:20:28.408Z,3.9
2023-01-08T16:21:36.748Z,3.9
2023-01-08T16:22:45.094Z,3.9
2023-01-08T16:23:53.646Z,5
2023-01-08T16:25:02.011Z,5
2023-01-08T16:26:10.336Z,5
2023-01-08T16:27:18.889Z,3.2
2023-01-08T16:28:27.228Z,3.2
2023-01-08T16:29:35.577Z,3.2
2023-01-08T16:30:44.138Z,2.5
2023-01-08T16:31:52.480Z,2.5
2023-01-08T16:33:00.849Z,2.5
2023-01-08T16:34:09.388Z,2.7
2023-01-08T16:35:17.757Z,2.7
2023-01-08T16:36:26.084Z,2.7